Time;durP1;ratioP1;P1;durP2;ratioP2;P2;SDS_P1;SDS_P2;PMS_P1;PMS_P2;Temp;Humidity;BMP_temperature;BMP_pressure;BME280_temperature;BME280_humidity;BME280_pressure;Samples;Min_cycle;Max_cycle;Signal;HPM_P1;HPM_P2
2024/02/29 00:01:57;;;;;;;38.63;36.60;;;;;;;;;;5065415;28;20428;-51
2024/02/29 00:04:43;;;;;;;39.45;37.33;;;;;;;;;;5061745;28;20037;-53
2024/02/29 00:07:28;;;;;;;40.80;38.65;;;;;;;;;;5063079;28;20317;-52
2024/02/29 00:10:14;;;;;;;41.05;38.85;;;;;;;;;;5059881;28;20044;-53
2024/02/29 00:13:00;;;;;;;39.67;37.47;;;;;;;;;;5063755;28;20048;-53
2024/02/29 00:15:45;;;;;;;40.15;37.97;;;;;;;;;;5062629;28;20036;-55
2024/02/29 00:18:31;;;;;;;37.10;35.17;;;;;;;;;;5062579;28;20423;-55
2024/02/29 00:21:17;;;;;;;39.47;37.40;;;;;;;;;;5060982;28;20036;-52
2024/02/29 00:24:02;;;;;;;38.58;36.53;;;;;;;;;;5063042;28;20147;-54
2024/02/29 00:26:48;;;;;;;35.95;33.97;;;;;;;;;;5059187;28;20079;-54
2024/02/29 00:29:34;;;;;;;40.78;38.47;;;;;;;;;;5049450;28;20121;-54
2024/02/29 00:32:20;;;;;;;37.60;35.63;;;;;;;;;;5060637;28;20046;-55
2024/02/29 00:35:06;;;;;;;35.03;32.97;;;;;;;;;;5062180;28;20059;-53
2024/02/29 00:37:52;;;;;;;34.15;32.28;;;;;;;;;;5062328;28;20677;-53
2024/02/29 00:40:38;;;;;;;35.35;33.45;;;;;;;;;;5060828;28;20044;-54
2024/02/29 00:43:24;;;;;;;34.38;32.53;;;;;;;;;;5063352;28;20382;-54
2024/02/29 00:46:09;;;;;;;35.65;33.80;;;;;;;;;;5059296;28;20470;-51
2024/02/29 00:48:55;;;;;;;33.90;32.08;;;;;;;;;;5060492;28;20040;-53
2024/02/29 00:51:41;;;;;;;30.85;29.17;;;;;;;;;;5061497;28;20040;-52
2024/02/29 00:54:27;;;;;;;29.45;27.85;;;;;;;;;;5048805;28;20457;-50
2024/02/29 00:57:12;;;;;;;27.15;25.67;;;;;;;;;;5061445;28;20052;-49
2024/02/29 00:59:58;;;;;;;27.48;25.88;;;;;;;;;;5046909;28;20036;-54
2024/02/29 01:02:44;;;;;;;29.40;27.75;;;;;;;;;;5061064;28;20032;-50
2024/02/29 01:05:30;;;;;;;30.90;29.17;;;;;;;;;;5048327;28;20257;-51
2024/02/29 01:08:15;;;;;;;29.88;28.05;;;;;;;;;;5056807;28;20041;-55
2024/02/29 01:11:03;;;;;;;29.25;27.65;;;;;;;;;;5061794;28;20330;-62
2024/02/29 01:13:49;;;;;;;31.75;30.02;;;;;;;;;;5067988;28;20107;-62
2024/02/29 01:16:34;;;;;;;31.25;29.55;;;;;;;;;;5064819;28;20036;-62
2024/02/29 01:19:20;;;;;;;30.02;28.38;;;;;;;;;;5063618;28;20098;-62
2024/02/29 01:22:06;;;;;;;30.95;29.25;;;;;;;;;;5047174;28;20064;-62
2024/02/29 01:24:51;;;;;;;31.50;29.65;;;;;;;;;;5060547;28;20117;-62
2024/02/29 01:27:37;;;;;;;32.88;30.70;;;;;;;;;;5062552;28;20064;-62
2024/02/29 01:30:23;;;;;;;32.72;30.83;;;;;;;;;;5063305;28;20061;-61
2024/02/29 01:33:08;;;;;;;31.55;29.85;;;;;;;;;;5061677;28;20040;-62
2024/02/29 01:35:54;;;;;;;28.67;27.10;;;;;;;;;;5061861;28;20714;-62
2024/02/29 01:38:40;;;;;;;30.02;28.33;;;;;;;;;;5060461;28;20072;-53
2024/02/29 01:41:25;;;;;;;27.10;25.60;;;;;;;;;;5060410;28;20585;-56
2024/02/29 01:44:11;;;;;;;25.95;24.45;;;;;;;;;;5061858;28;20049;-54
2024/02/29 01:46:57;;;;;;;27.77;26.27;;;;;;;;;;5059847;28;20062;-54
2024/02/29 01:49:45;;;;;;;27.40;25.90;;;;;;;;;;5058808;28;20044;-54
2024/02/29 01:52:33;;;;;;;26.83;25.40;;;;;;;;;;5061808;28;20040;-53
2024/02/29 01:55:19;;;;;;;29.98;28.23;;;;;;;;;;5057232;28;20483;-52
2024/02/29 01:58:05;;;;;;;31.52;29.73;;;;;;;;;;5064556;28;20521;-54
2024/02/29 02:00:51;;;;;;;30.80;28.80;;;;;;;;;;5061894;28;20060;-53
2024/02/29 02:03:37;;;;;;;30.88;29.17;;;;;;;;;;5064168;28;20054;-54
2024/02/29 02:06:23;;;;;;;30.38;28.77;;;;;;;;;;5063357;28;20037;-55
2024/02/29 02:09:10;;;;;;;31.10;29.30;;;;;;;;;;5059792;28;20731;-54
2024/02/29 02:11:56;;;;;;;32.28;30.48;;;;;;;;;;5064497;28;20036;-55
2024/02/29 02:14:41;;;;;;;29.73;27.95;;;;;;;;;;5064175;28;20040;-53
2024/02/29 02:17:28;;;;;;;27.80;26.30;;;;;;;;;;5064231;28;20074;-52
2024/02/29 02:20:17;;;;;;;28.52;27.02;;;;;;;;;;5063147;28;20132;-55
2024/02/29 02:23:03;;;;;;;30.77;28.73;;;;;;;;;;5066713;28;20041;-53
2024/02/29 02:25:49;;;;;;;30.52;28.73;;;;;;;;;;5062501;28;20090;-52
2024/02/29 02:28:34;;;;;;;30.58;28.88;;;;;;;;;;5062235;28;20575;-53
2024/02/29 02:31:20;;;;;;;31.75;30.05;;;;;;;;;;5059965;28;20076;-54
2024/02/29 02:34:06;;;;;;;33.80;31.88;;;;;;;;;;5063151;28;20052;-56
2024/02/29 02:36:52;;;;;;;35.00;33.05;;;;;;;;;;5063129;28;20052;-53
2024/02/29 02:39:37;;;;;;;34.08;32.25;;;;;;;;;;5063606;28;20074;-55
2024/02/29 02:42:24;;;;;;;34.03;32.22;;;;;;;;;;5063705;28;20118;-54
2024/02/29 02:45:09;;;;;;;35.63;33.72;;;;;;;;;;5064691;28;20147;-55
2024/02/29 02:47:55;;;;;;;35.55;33.50;;;;;;;;;;5061732;28;20111;-53
2024/02/29 02:50:41;;;;;;;33.83;31.95;;;;;;;;;;5064005;28;20071;-53
2024/02/29 02:53:27;;;;;;;35.97;33.95;;;;;;;;;;5063719;28;20060;-55
2024/02/29 02:56:12;;;;;;;38.70;36.58;;;;;;;;;;5077484;28;20111;-51
2024/02/29 02:58:58;;;;;;;35.92;33.97;;;;;;;;;;5062760;28;20064;-50
2024/02/29 03:01:44;;;;;;;39.30;37.20;;;;;;;;;;5065241;28;20465;-51
2024/02/29 03:04:29;;;;;;;44.92;42.38;;;;;;;;;;5062408;28;20076;-52
2024/02/29 03:07:15;;;;;;;43.58;41.33;;;;;;;;;;5062585;28;20039;-55
2024/02/29 03:10:01;;;;;;;43.13;40.90;;;;;;;;;;5047964;28;20051;-53
2024/02/29 03:12:48;;;;;;;46.13;42.78;;;;;;;;;;5064993;28;20035;-55
2024/02/29 03:15:34;;;;;;;43.92;41.22;;;;;;;;;;5063820;28;20063;-54
2024/02/29 03:18:20;;;;;;;40.95;38.75;;;;;;;;;;5050008;28;20102;-55
2024/02/29 03:21:06;;;;;;;41.08;38.78;;;;;;;;;;5061922;28;20249;-54
2024/02/29 03:23:52;;;;;;;38.83;36.63;;;;;;;;;;5061786;28;20045;-54
2024/02/29 03:26:37;;;;;;;38.08;35.78;;;;;;;;;;5062214;28;20462;-53
2024/02/29 03:29:23;;;;;;;34.17;32.35;;;;;;;;;;5061127;28;20050;-53
2024/02/29 03:32:10;;;;;;;32.83;31.08;;;;;;;;;;5061552;28;20051;-51
2024/02/29 03:34:56;;;;;;;35.88;33.67;;;;;;;;;;5062117;28;20239;-50
2024/02/29 03:37:41;;;;;;;37.70;35.60;;;;;;;;;;5062081;28;20124;-49
2024/02/29 03:40:27;;;;;;;37.80;35.75;;;;;;;;;;5061137;28;20052;-54
2024/02/29 03:43:13;;;;;;;36.95;34.97;;;;;;;;;;5050102;28;20681;-53
2024/02/29 03:45:59;;;;;;;38.10;35.63;;;;;;;;;;5061968;28;20039;-54
2024/02/29 03:48:44;;;;;;;38.78;36.63;;;;;;;;;;5063332;28;20050;-54
2024/02/29 03:51:30;;;;;;;36.50;34.33;;;;;;;;;;5059894;28;20504;-55
2024/02/29 03:54:16;;;;;;;35.97;33.97;;;;;;;;;;5062379;28;20082;-54
2024/02/29 03:57:02;;;;;;;36.53;34.28;;;;;;;;;;5064243;28;20044;-51
2024/02/29 03:59:48;;;;;;;33.30;31.45;;;;;;;;;;5061386;28;20048;-52
2024/02/29 04:02:33;;;;;;;32.00;30.15;;;;;;;;;;5061520;28;20425;-53
2024/02/29 04:05:23;;;;;;;29.00;27.45;;;;;;;;;;5060871;28;20076;-52
2024/02/29 04:08:12;;;;;;;28.95;27.23;;;;;;;;;;5061955;28;20106;-53
2024/02/29 04:10:58;;;;;;;30.38;28.73;;;;;;;;;;5050528;28;20049;-55
2024/02/29 04:13:44;;;;;;;30.38;28.70;;;;;;;;;;5063387;28;20406;-62
2024/02/29 04:16:37;;;;;;;31.02;29.30;;;;;;;;;;5063628;28;20036;-62
2024/02/29 04:19:22;;;;;;;36.03;33.05;;;;;;;;;;5062259;28;20067;-62
2024/02/29 04:22:08;;;;;;;30.48;28.67;;;;;;;;;;5064563;28;20288;-62
2024/02/29 04:24:54;;;;;;;30.02;28.40;;;;;;;;;;5059440;28;20051;-62
2024/02/29 04:27:40;;;;;;;30.02;28.27;;;;;;;;;;5075928;28;20119;-62
2024/02/29 04:30:26;;;;;;;30.70;29.02;;;;;;;;;;5061596;28;20363;-62
2024/02/29 04:33:11;;;;;;;33.13;31.27;;;;;;;;;;5062036;28;20044;-62
2024/02/29 04:35:57;;;;;;;31.92;30.23;;;;;;;;;;5064166;28;20067;-62
2024/02/29 04:38:42;;;;;;;37.72;35.70;;;;;;;;;;5061009;28;20044;-62
2024/02/29 04:41:28;;;;;;;39.88;37.75;;;;;;;;;;5062830;28;20068;-62
2024/02/29 04:44:14;;;;;;;35.10;33.22;;;;;;;;;;5062402;28;20044;-62
2024/02/29 04:46:59;;;;;;;36.25;34.28;;;;;;;;;;5063512;28;20032;-62
2024/02/29 04:49:45;;;;;;;36.90;34.92;;;;;;;;;;5077722;28;20092;-62
2024/02/29 04:52:30;;;;;;;33.22;31.27;;;;;;;;;;5060081;28;20126;-62
2024/02/29 04:55:17;;;;;;;35.38;33.53;;;;;;;;;;5065956;28;20037;-62
2024/02/29 04:58:03;;;;;;;37.20;35.22;;;;;;;;;;5063317;28;20036;-62
2024/02/29 05:00:48;;;;;;;35.03;33.10;;;;;;;;;;5063938;28;20037;-62
2024/02/29 05:03:34;;;;;;;33.85;32.00;;;;;;;;;;5062460;28;20041;-62
2024/02/29 05:06:20;;;;;;;36.55;34.45;;;;;;;;;;5059502;28;20043;-62
2024/02/29 05:09:06;;;;;;;38.28;36.05;;;;;;;;;;5057981;28;20091;-62
2024/02/29 05:11:53;;;;;;;41.80;39.60;;;;;;;;;;5061101;28;20147;-62
2024/02/29 05:14:39;;;;;;;39.80;37.72;;;;;;;;;;5060072;28;20579;-62
2024/02/29 05:17:25;;;;;;;44.03;41.22;;;;;;;;;;5061081;28;20535;-62
2024/02/29 05:20:11;;;;;;;45.88;43.50;;;;;;;;;;5061727;28;20048;-62
2024/02/29 05:22:57;;;;;;;45.50;43.00;;;;;;;;;;5067333;28;20044;-61
2024/02/29 05:25:43;;;;;;;38.58;36.40;;;;;;;;;;5061883;28;20036;-62
2024/02/29 05:28:28;;;;;;;39.70;37.45;;;;;;;;;;5064160;28;20040;-62
2024/02/29 05:31:14;;;;;;;39.47;37.33;;;;;;;;;;5063844;28;20037;-63
2024/02/29 05:33:59;;;;;;;39.85;37.67;;;;;;;;;;5056192;28;20477;-62
2024/02/29 05:36:45;;;;;;;39.92;37.40;;;;;;;;;;5067290;28;20473;-61
2024/02/29 05:39:33;;;;;;;37.80;35.70;;;;;;;;;;5061024;28;20480;-63
2024/02/29 05:42:21;;;;;;;40.70;38.42;;;;;;;;;;5069479;28;20103;-63
2024/02/29 05:45:08;;;;;;;43.05;40.80;;;;;;;;;;5065422;28;20309;-62
2024/02/29 05:47:53;;;;;;;48.03;45.42;;;;;;;;;;5067810;28;20044;-61
2024/02/29 05:50:39;;;;;;;49.58;46.92;;;;;;;;;;5064632;28;20120;-63
2024/02/29 05:53:25;;;;;;;47.38;44.88;;;;;;;;;;5063582;28;20033;-62
2024/02/29 05:56:13;;;;;;;46.22;43.83;;;;;;;;;;5066310;28;20040;-61
2024/02/29 05:58:59;;;;;;;48.22;45.45;;;;;;;;;;5053501;28;20047;-62
2024/02/29 06:01:44;;;;;;;47.05;44.60;;;;;;;;;;5063120;28;23521;-62
2024/02/29 06:04:30;;;;;;;49.33;46.60;;;;;;;;;;5064890;28;20050;-62
2024/02/29 06:07:15;;;;;;;49.30;46.38;;;;;;;;;;5066703;28;20035;-62
2024/02/29 06:10:02;;;;;;;46.35;43.88;;;;;;;;;;5064712;28;20072;-62
2024/02/29 06:12:48;;;;;;;45.80;43.33;;;;;;;;;;5066670;28;20159;-62
2024/02/29 06:15:33;;;;;;;41.75;39.47;;;;;;;;;;5066470;28;20048;-62
2024/02/29 06:18:19;;;;;;;42.33;39.97;;;;;;;;;;5061950;28;20047;-62
2024/02/29 06:21:05;;;;;;;40.75;38.63;;;;;;;;;;5067102;28;20132;-62
2024/02/29 06:23:50;;;;;;;40.20;38.03;;;;;;;;;;5062714;28;20115;-62
2024/02/29 06:26:36;;;;;;;42.55;40.30;;;;;;;;;;5063602;28;20036;-63
2024/02/29 06:29:22;;;;;;;43.72;41.38;;;;;;;;;;5066022;28;20376;-62
2024/02/29 06:32:07;;;;;;;46.53;43.88;;;;;;;;;;5062523;28;20131;-63
2024/02/29 06:34:53;;;;;;;47.08;44.58;;;;;;;;;;5065608;28;20355;-63
2024/02/29 06:37:40;;;;;;;47.30;44.72;;;;;;;;;;5066013;28;20415;-62
2024/02/29 06:40:26;;;;;;;47.80;45.13;;;;;;;;;;5062762;28;20044;-63
2024/02/29 06:43:12;;;;;;;48.55;45.95;;;;;;;;;;5064999;28;20036;-63
2024/02/29 06:46:00;;;;;;;49.25;46.55;;;;;;;;;;5063618;28;20040;-62
2024/02/29 06:48:45;;;;;;;47.78;45.28;;;;;;;;;;5056055;28;20477;-61
2024/02/29 06:51:33;;;;;;;44.90;42.45;;;;;;;;;;5063917;28;20037;-62
2024/02/29 06:54:18;;;;;;;42.42;40.13;;;;;;;;;;5068450;28;20040;-63
2024/02/29 06:57:04;;;;;;;43.80;41.08;;;;;;;;;;5067014;28;20060;-61
2024/02/29 06:59:50;;;;;;;46.55;43.78;;;;;;;;;;5068577;28;20047;-63
2024/02/29 07:02:37;;;;;;;45.30;42.72;;;;;;;;;;5064534;28;20126;-61
2024/02/29 07:05:22;;;;;;;44.90;42.40;;;;;;;;;;5063515;28;20047;-62
2024/02/29 07:08:10;;;;;;;47.08;44.05;;;;;;;;;;5064215;28;20127;-62
2024/02/29 07:10:55;;;;;;;41.47;39.22;;;;;;;;;;5067455;28;20132;-62
2024/02/29 07:13:41;;;;;;;41.05;38.60;;;;;;;;;;5065936;28;20501;-62
2024/02/29 07:16:27;;;;;;;38.60;36.00;;;;;;;;;;5066714;28;20462;-62
2024/02/29 07:19:13;;;;;;;36.88;34.78;;;;;;;;;;5052156;28;20123;-62
2024/02/29 07:21:59;;;;;;;33.55;31.63;;;;;;;;;;5067505;28;20090;-62
2024/02/29 07:24:44;;;;;;;34.03;31.48;;;;;;;;;;5062671;28;20066;-62
2024/02/29 07:27:30;;;;;;;34.65;32.63;;;;;;;;;;5064582;28;20570;-62
2024/02/29 07:30:16;;;;;;;33.00;30.73;;;;;;;;;;5063676;28;20417;-62
2024/02/29 07:33:01;;;;;;;32.58;30.38;;;;;;;;;;5063194;28;20500;-62
2024/02/29 07:35:48;;;;;;;33.35;30.90;;;;;;;;;;5063931;28;20469;-62
2024/02/29 07:38:33;;;;;;;32.90;30.30;;;;;;;;;;5061759;28;20378;-63
2024/02/29 07:41:20;;;;;;;30.23;28.52;;;;;;;;;;5049544;28;20704;-62
2024/02/29 07:44:05;;;;;;;28.33;26.73;;;;;;;;;;5064638;28;20672;-63
2024/02/29 07:46:51;;;;;;;29.83;28.05;;;;;;;;;;5062537;28;20044;-62
2024/02/29 07:49:37;;;;;;;29.70;27.92;;;;;;;;;;5060539;28;20028;-62
2024/02/29 07:52:22;;;;;;;29.20;27.30;;;;;;;;;;5061624;28;20314;-62
2024/02/29 07:55:13;;;;;;;29.17;27.33;;;;;;;;;;5060631;28;20036;-62
2024/02/29 07:58:00;;;;;;;30.20;28.40;;;;;;;;;;5063451;28;20051;-61
2024/02/29 08:00:46;;;;;;;30.50;28.75;;;;;;;;;;5062822;28;20040;-62
2024/02/29 08:03:32;;;;;;;31.02;29.25;;;;;;;;;;5062575;28;20455;-62
2024/02/29 08:06:18;;;;;;;29.83;28.13;;;;;;;;;;5061350;28;20040;-61
2024/02/29 08:09:05;;;;;;;29.30;27.58;;;;;;;;;;5062814;28;20032;-62
2024/02/29 08:11:50;;;;;;;27.88;25.83;;;;;;;;;;5063363;28;20040;-62
2024/02/29 08:14:36;;;;;;;25.73;24.20;;;;;;;;;;5051604;28;20044;-62
2024/02/29 08:17:21;;;;;;;26.35;24.75;;;;;;;;;;5065863;28;20192;-62
2024/02/29 08:20:07;;;;;;;24.63;23.13;;;;;;;;;;5065936;28;20039;-62
2024/02/29 08:22:56;;;;;;;24.02;22.27;;;;;;;;;;5062471;28;20258;-63
2024/02/29 08:25:42;;;;;;;23.05;21.65;;;;;;;;;;5065555;28;20368;-62
2024/02/29 08:28:28;;;;;;;26.13;24.38;;;;;;;;;;5063596;28;20056;-62
2024/02/29 08:31:13;;;;;;;24.77;23.27;;;;;;;;;;5061552;28;20062;-63
2024/02/29 08:33:59;;;;;;;27.30;25.70;;;;;;;;;;5062009;28;20040;-63
2024/02/29 08:36:45;;;;;;;25.67;24.13;;;;;;;;;;5064106;28;20132;-61
2024/02/29 08:39:30;;;;;;;27.45;25.45;;;;;;;;;;5063003;28;20662;-63
2024/02/29 08:42:16;;;;;;;28.25;26.35;;;;;;;;;;5063262;28;20044;-62
2024/02/29 08:45:03;;;;;;;25.90;24.17;;;;;;;;;;5053961;28;20119;-62
2024/02/29 08:47:49;;;;;;;28.58;26.58;;;;;;;;;;5064167;28;20367;-62
2024/02/29 08:50:35;;;;;;;28.92;26.67;;;;;;;;;;5062457;28;20047;-62
2024/02/29 08:53:22;;;;;;;29.45;27.52;;;;;;;;;;5064545;28;20317;-63
2024/02/29 08:56:07;;;;;;;27.55;25.83;;;;;;;;;;5063239;28;20051;-62
2024/02/29 08:58:54;;;;;;;31.98;29.63;;;;;;;;;;5064173;28;20142;-62
2024/02/29 09:01:39;;;;;;;32.85;30.50;;;;;;;;;;5064620;28;20095;-62
2024/02/29 09:04:25;;;;;;;31.65;29.73;;;;;;;;;;5064133;28;20391;-62
2024/02/29 09:07:11;;;;;;;36.83;34.75;;;;;;;;;;5062169;28;20036;-63
2024/02/29 09:09:57;;;;;;;38.38;35.72;;;;;;;;;;5057778;28;20398;-62
2024/02/29 09:12:42;;;;;;;34.42;32.03;;;;;;;;;;5061783;28;20201;-62
2024/02/29 09:15:28;;;;;;;38.47;36.05;;;;;;;;;;5062426;28;20080;-62
2024/02/29 09:18:13;;;;;;;38.42;36.05;;;;;;;;;;5047009;28;20039;-62
2024/02/29 09:20:59;;;;;;;37.58;35.22;;;;;;;;;;5061192;28;20043;-62
2024/02/29 09:23:44;;;;;;;39.30;36.47;;;;;;;;;;5045486;28;20105;-61
2024/02/29 09:26:31;;;;;;;41.97;38.95;;;;;;;;;;5064094;28;20032;-62
2024/02/29 09:29:17;;;;;;;40.88;38.45;;;;;;;;;;5061786;28;20723;-62
2024/02/29 09:32:03;;;;;;;44.83;41.97;;;;;;;;;;5061783;28;20413;-62
2024/02/29 09:34:49;;;;;;;46.60;43.80;;;;;;;;;;5061889;28;20044;-63
2024/02/29 09:37:35;;;;;;;46.33;43.63;;;;;;;;;;5072185;28;20333;-62
2024/02/29 09:40:20;;;;;;;46.67;43.53;;;;;;;;;;5062799;28;20028;-62
2024/02/29 09:43:06;;;;;;;29.65;27.55;;;;;;;;;;5050114;28;20036;-63
2024/02/29 09:45:54;;;;;;;27.83;26.00;;;;;;;;;;5059272;28;20048;-62
2024/02/29 09:48:40;;;;;;;31.33;28.90;;;;;;;;;;5059488;28;20519;-63
2024/02/29 09:51:27;;;;;;;32.17;30.08;;;;;;;;;;5062609;28;20036;-62
2024/02/29 09:54:19;;;;;;;32.90;30.92;;;;;;;;;;5061971;28;20037;-62
2024/02/29 09:57:07;;;;;;;48.88;44.50;;;;;;;;;;5060566;28;20045;-62
2024/02/29 09:59:53;;;;;;;34.35;31.80;;;;;;;;;;5059645;28;20045;-62
2024/02/29 10:02:40;;;;;;;37.38;34.83;;;;;;;;;;5058790;28;20689;-62
2024/02/29 10:05:26;;;;;;;44.00;41.35;;;;;;;;;;5061807;28;20124;-62
2024/02/29 10:08:12;;;;;;;38.38;35.78;;;;;;;;;;5060738;28;20048;-62
2024/02/29 10:10:58;;;;;;;30.80;28.92;;;;;;;;;;5046225;28;20041;-62
2024/02/29 10:13:44;;;;;;;41.33;38.92;;;;;;;;;;5064053;28;20379;-63
2024/02/29 10:16:32;;;;;;;48.65;45.63;;;;;;;;;;5061566;28;20698;-62
2024/02/29 10:19:22;;;;;;;53.72;50.47;;;;;;;;;;5063429;28;20651;-63
2024/02/29 10:22:08;;;;;;;53.10;50.10;;;;;;;;;;5064073;28;20161;-63
2024/02/29 10:24:54;;;;;;;51.80;48.72;;;;;;;;;;5063667;28;20478;-63
2024/02/29 10:27:41;;;;;;;52.45;48.38;;;;;;;;;;5067717;28;20045;-63
2024/02/29 10:30:27;;;;;;;44.85;42.08;;;;;;;;;;5064069;28;20540;-62
2024/02/29 10:33:13;;;;;;;35.63;33.42;;;;;;;;;;5069128;28;20689;-63
2024/02/29 10:36:08;;;;;;;37.42;34.72;;;;;;;;;;5066328;28;22598;-63
2024/02/29 10:38:58;;;;;;;37.20;34.85;;;;;;;;;;5061781;28;20075;-63
2024/02/29 10:41:49;;;;;;;31.10;29.15;;;;;;;;;;5062421;28;20050;-64
2024/02/29 10:44:38;;;;;;;30.58;28.45;;;;;;;;;;5068135;28;20370;-63
2024/02/29 10:47:26;;;;;;;28.90;27.10;;;;;;;;;;5065827;28;20141;-64
2024/02/29 10:50:19;;;;;;;33.97;31.63;;;;;;;;;;5063065;28;20036;-64
2024/02/29 10:53:22;;;;;;;30.90;28.75;;;;;;;;;;5061793;28;20032;-63
2024/02/29 10:56:28;;;;;;;30.17;27.63;;;;;;;;;;5065074;28;20586;-63
2024/02/29 10:59:18;;;;;;;30.90;29.10;;;;;;;;;;5067378;28;20377;-64
2024/02/29 11:02:04;;;;;;;34.25;32.22;;;;;;;;;;5065249;28;20358;-62
2024/02/29 11:04:50;;;;;;;33.72;31.23;;;;;;;;;;5063513;28;20059;-62
2024/02/29 11:07:36;;;;;;;30.75;28.77;;;;;;;;;;5066403;28;20036;-62
2024/02/29 11:10:22;;;;;;;31.35;29.08;;;;;;;;;;5066625;28;20064;-63
2024/02/29 11:13:08;;;;;;;29.42;27.33;;;;;;;;;;5063924;28;20122;-63
2024/02/29 11:15:55;;;;;;;29.33;27.40;;;;;;;;;;5064793;28;20064;-62
2024/02/29 11:18:41;;;;;;;32.40;30.00;;;;;;;;;;5067024;28;20098;-63
2024/02/29 11:21:28;;;;;;;30.05;27.42;;;;;;;;;;5066339;28;20186;-63
2024/02/29 11:24:20;;;;;;;28.30;26.55;;;;;;;;;;5063478;28;20101;-62
2024/02/29 11:27:12;;;;;;;30.98;28.33;;;;;;;;;;5064029;28;20118;-62
2024/02/29 11:30:03;;;;;;;29.65;27.55;;;;;;;;;;5062060;28;20122;-63
2024/02/29 11:32:50;;;;;;;;;;;;;;;;;;5064795;28;20419;-64
2024/02/29 11:35:36;;;;;;;28.27;26.25;;;;;;;;;;5060506;28;19978;-63
2024/02/29 11:38:21;;;;;;;32.10;29.98;;;;;;;;;;5061202;28;20585;-65
2024/02/29 11:41:15;;;;;;;35.92;33.63;;;;;;;;;;5062199;28;20839;-65
2024/02/29 11:44:01;;;;;;;34.25;32.15;;;;;;;;;;5063528;28;20044;-63
2024/02/29 11:46:48;;;;;;;44.20;41.05;;;;;;;;;;5061900;28;20036;-63
2024/02/29 11:49:34;;;;;;;34.50;32.30;;;;;;;;;;5060925;28;20043;-64
2024/02/29 11:52:19;;;;;;;36.85;34.63;;;;;;;;;;5060578;28;20042;-64
2024/02/29 11:55:06;;;;;;;39.90;37.25;;;;;;;;;;5062284;28;20032;-64
2024/02/29 11:57:51;;;;;;;39.20;36.55;;;;;;;;;;5065234;28;20387;-64
2024/02/29 12:00:37;;;;;;;44.13;39.47;;;;;;;;;;5062409;28;20045;-64
2024/02/29 12:03:24;;;;;;;35.75;33.42;;;;;;;;;;5060788;28;20048;-63
2024/02/29 12:06:10;;;;;;;28.23;26.52;;;;;;;;;;5063289;28;20165;-64
2024/02/29 12:08:55;;;;;;;29.38;27.42;;;;;;;;;;5063387;28;20063;-64
2024/02/29 12:11:43;;;;;;;30.88;29.08;;;;;;;;;;5062562;28;20039;-63
2024/02/29 12:14:29;;;;;;;28.58;26.58;;;;;;;;;;5062009;28;20043;-64
2024/02/29 12:17:16;;;;;;;29.70;27.75;;;;;;;;;;5060436;28;20151;-63
2024/02/29 12:20:04;;;;;;;26.38;24.67;;;;;;;;;;5062507;28;20051;-63
2024/02/29 12:22:59;;;;;;;29.23;27.33;;;;;;;;;;5064287;28;20044;-64
2024/02/29 12:25:45;;;;;;;37.47;34.97;;;;;;;;;;5063154;28;20036;-64
2024/02/29 12:28:31;;;;;;;39.65;37.10;;;;;;;;;;5062088;28;20029;-64
2024/02/29 12:31:17;;;;;;;38.10;35.50;;;;;;;;;;5058959;28;20580;-64
2024/02/29 12:34:05;;;;;;;36.78;34.33;;;;;;;;;;5076702;28;20098;-63
2024/02/29 12:36:51;;;;;;;42.72;40.13;;;;;;;;;;5062625;28;20668;-62
2024/02/29 12:39:37;;;;;;;32.22;30.15;;;;;;;;;;5061442;28;20040;-62
2024/02/29 12:42:23;;;;;;;29.15;26.83;;;;;;;;;;5060981;28;20472;-63
2024/02/29 12:45:09;;;;;;;36.33;34.00;;;;;;;;;;5062176;28;20476;-62
2024/02/29 12:47:55;;;;;;;39.38;36.83;;;;;;;;;;5062899;28;20032;-63
2024/02/29 12:50:40;;;;;;;31.42;29.38;;;;;;;;;;5062183;28;20643;-62
2024/02/29 12:53:26;;;;;;;42.33;39.70;;;;;;;;;;5062557;28;20040;-62
2024/02/29 12:56:13;;;;;;;34.95;32.58;;;;;;;;;;5063506;28;20040;-62
2024/02/29 12:58:58;;;;;;;27.80;26.05;;;;;;;;;;5061863;28;20075;-61
2024/02/29 13:01:44;;;;;;;26.63;24.60;;;;;;;;;;5046340;28;20337;-61
2024/02/29 13:04:30;;;;;;;25.35;23.77;;;;;;;;;;5062631;28;20068;-61
2024/02/29 13:07:16;;;;;;;26.38;24.17;;;;;;;;;;5060180;28;20046;-61
2024/02/29 13:10:02;;;;;;;39.92;37.47;;;;;;;;;;5059336;28;20054;-61
2024/02/29 13:12:48;;;;;;;43.03;40.35;;;;;;;;;;5062061;28;20056;-63
2024/02/29 13:15:34;;;;;;;42.72;39.97;;;;;;;;;;5060367;28;20391;-63
2024/02/29 13:18:20;;;;;;;32.70;30.88;;;;;;;;;;5059691;28;20037;-61
2024/02/29 13:21:06;;;;;;;37.20;35.00;;;;;;;;;;5063653;28;20337;-61
2024/02/29 13:23:52;;;;;;;35.47;33.28;;;;;;;;;;5061201;28;20055;-61
2024/02/29 13:26:37;;;;;;;34.00;32.10;;;;;;;;;;5061682;28;20063;-61
2024/02/29 13:29:23;;;;;;;29.40;27.50;;;;;;;;;;5057901;28;20482;-62
2024/02/29 13:32:08;;;;;;;28.45;26.63;;;;;;;;;;5062967;28;20625;-62
2024/02/29 13:34:54;;;;;;;32.67;30.80;;;;;;;;;;5062387;28;20048;-62
2024/02/29 13:37:41;;;;;;;25.83;24.33;;;;;;;;;;5062080;28;20715;-64
2024/02/29 13:40:26;;;;;;;25.70;23.95;;;;;;;;;;5056562;28;20045;-58
2024/02/29 13:43:13;;;;;;;27.02;25.35;;;;;;;;;;5060105;28;20490;-63
2024/02/29 13:45:59;;;;;;;34.80;32.40;;;;;;;;;;5058516;28;20402;-65
2024/02/29 13:48:46;;;;;;;29.42;27.50;;;;;;;;;;5063559;28;20078;-65
2024/02/29 13:51:31;;;;;;;30.35;28.52;;;;;;;;;;5061338;28;20067;-65
2024/02/29 13:54:17;;;;;;;37.65;35.45;;;;;;;;;;5063592;28;20295;-65
2024/02/29 13:57:04;;;;;;;36.17;34.17;;;;;;;;;;5062588;28;20653;-65
2024/02/29 13:59:49;;;;;;;40.17;37.78;;;;;;;;;;5064382;28;20041;-64
2024/02/29 14:02:35;;;;;;;37.10;34.90;;;;;;;;;;5065015;28;20115;-62
2024/02/29 14:05:21;;;;;;;38.53;36.08;;;;;;;;;;5063879;28;20043;-64
2024/02/29 14:08:07;;;;;;;36.97;34.88;;;;;;;;;;5063962;28;20393;-64
2024/02/29 14:10:53;;;;;;;39.17;36.78;;;;;;;;;;5068093;28;20032;-64
2024/02/29 14:13:38;;;;;;;38.75;36.42;;;;;;;;;;5050677;28;20033;-64
2024/02/29 14:16:24;;;;;;;39.80;37.45;;;;;;;;;;5061244;28;20123;-64
2024/02/29 14:19:10;;;;;;;39.13;36.72;;;;;;;;;;5064158;28;20386;-64
2024/02/29 14:21:55;;;;;;;39.25;36.92;;;;;;;;;;5063414;28;20526;-64
2024/02/29 14:24:41;;;;;;;39.60;37.25;;;;;;;;;;5061308;28;20051;-63
2024/02/29 14:27:26;;;;;;;39.88;37.67;;;;;;;;;;5064710;28;20036;-64
2024/02/29 14:30:13;;;;;;;37.13;35.03;;;;;;;;;;5066597;28;20075;-63
2024/02/29 14:32:58;;;;;;;40.35;37.88;;;;;;;;;;5065116;28;20036;-64
2024/02/29 14:35:45;;;;;;;39.38;36.85;;;;;;;;;;5067050;28;20033;-63
2024/02/29 14:38:31;;;;;;;39.20;37.00;;;;;;;;;;5065950;28;20544;-64
2024/02/29 14:41:17;;;;;;;39.25;36.78;;;;;;;;;;5068225;28;20346;-63
2024/02/29 14:44:03;;;;;;;39.80;37.30;;;;;;;;;;5064009;28;20629;-63
2024/02/29 14:46:50;;;;;;;40.33;38.00;;;;;;;;;;5068721;28;20046;-64
2024/02/29 14:49:36;;;;;;;39.95;37.45;;;;;;;;;;5063000;28;20036;-64
2024/02/29 14:52:22;;;;;;;39.38;36.97;;;;;;;;;;5064192;28;20079;-63
2024/02/29 14:55:08;;;;;;;38.95;36.45;;;;;;;;;;5063845;28;20051;-64
2024/02/29 14:57:54;;;;;;;36.10;33.80;;;;;;;;;;5062629;28;20440;-63
2024/02/29 15:00:39;;;;;;;40.35;38.10;;;;;;;;;;5062055;28;20349;-64
2024/02/29 15:03:25;;;;;;;41.10;38.70;;;;;;;;;;5058615;28;20219;-63
2024/02/29 15:06:11;;;;;;;34.00;31.92;;;;;;;;;;5063864;28;20044;-64
2024/02/29 15:08:57;;;;;;;42.53;39.83;;;;;;;;;;5061324;28;20153;-64
2024/02/29 15:11:43;;;;;;;39.33;37.03;;;;;;;;;;5078104;28;20047;-63
2024/02/29 15:14:28;;;;;;;36.30;34.10;;;;;;;;;;5065182;28;20107;-63
2024/02/29 15:17:14;;;;;;;39.97;37.72;;;;;;;;;;5065374;28;20031;-64
2024/02/29 15:20:00;;;;;;;41.97;39.08;;;;;;;;;;5061150;28;20050;-63
2024/02/29 15:22:45;;;;;;;37.75;35.55;;;;;;;;;;5061822;28;20044;-63
2024/02/29 15:25:31;;;;;;;39.60;37.15;;;;;;;;;;5063873;28;20162;-63
2024/02/29 15:28:17;;;;;;;39.45;37.15;;;;;;;;;;5064341;28;20040;-63
2024/02/29 15:31:02;;;;;;;34.15;32.15;;;;;;;;;;5064490;28;20041;-63
2024/02/29 15:33:50;;;;;;;31.20;29.02;;;;;;;;;;5062628;28;20107;-63
2024/02/29 15:36:35;;;;;;;32.58;30.70;;;;;;;;;;5059739;28;20651;-66
2024/02/29 15:39:21;;;;;;;34.88;32.67;;;;;;;;;;5059145;28;20040;-63
2024/02/29 15:42:07;;;;;;;31.20;29.35;;;;;;;;;;5045433;28;20094;-63
2024/02/29 15:44:53;;;;;;;34.85;32.72;;;;;;;;;;5060866;28;20045;-64
2024/02/29 15:47:39;;;;;;;28.08;26.30;;;;;;;;;;5062220;28;20423;-63
2024/02/29 15:50:25;;;;;;;27.20;25.45;;;;;;;;;;5059853;28;20041;-64
2024/02/29 15:53:12;;;;;;;27.48;25.67;;;;;;;;;;5048654;28;20071;-64
2024/02/29 15:55:58;;;;;;;28.50;25.70;;;;;;;;;;5065856;28;20040;-64
2024/02/29 15:58:44;;;;;;;26.20;24.60;;;;;;;;;;5062484;28;20032;-63
2024/02/29 16:01:29;;;;;;;29.27;27.30;;;;;;;;;;5062653;28;20605;-64
2024/02/29 16:04:15;;;;;;;27.88;25.95;;;;;;;;;;5065126;28;20054;-62
2024/02/29 16:07:01;;;;;;;28.02;26.33;;;;;;;;;;5049981;28;20059;-63
2024/02/29 16:09:46;;;;;;;27.02;25.40;;;;;;;;;;5063902;28;20437;-62